createdAt,value
2022-09-10T00:01:42.274Z,14.65
2022-09-10T00:06:44.382Z,14.55
2022-09-10T00:11:46.589Z,14.46
2022-09-10T00:16:49.357Z,14.28
2022-09-10T00:21:51.036Z,14.05
2022-09-10T00:26:52.692Z,13.94
2022-09-10T00:31:55.105Z,13.84
2022-09-10T00:36:56.826Z,13.97
2022-09-10T00:41:58.556Z,14.01
2022-09-10T00:47:00.457Z,13.94
2022-09-10T00:52:02.740Z,13.76
2022-09-10T00:57:12.607Z,13.77
2022-09-10T01:02:15.046Z,13.79
2022-09-10T01:07:17.025Z,13.81
2022-09-10T01:12:40.488Z,13.71
2022-09-10T01:18:11.995Z,13.58
2022-09-10T01:23:31.914Z,13.64
2022-09-10T01:28:52.121Z,13.90
2022-09-10T01:34:18.911Z,14.18
2022-09-10T01:39:23.962Z,14.50
2022-09-10T01:44:46.008Z,14.55
2022-09-10T01:50:03.972Z,14.63
2022-09-10T01:55:17.726Z,14.66
2022-09-10T02:00:22.078Z,14.59
2022-09-10T02:05:26.537Z,14.61
2022-09-10T02:10:28.647Z,14.68
2022-09-10T02:15:32.448Z,14.58
2022-09-10T02:20:34.102Z,14.59
2022-09-10T02:25:37.572Z,14.62
2022-09-10T02:30:39.156Z,14.67
2022-09-10T02:35:40.787Z,14.70
2022-09-10T02:40:43.365Z,14.57
2022-09-10T02:45:45.196Z,14.59
2022-09-10T02:50:46.896Z,14.73
2022-09-10T02:55:48.975Z,14.88
2022-09-10T03:00:50.859Z,14.93
2022-09-10T03:05:52.576Z,14.91
2022-09-10T03:10:55.956Z,14.90
2022-09-10T03:16:04.095Z,14.73
2022-09-10T03:21:10.230Z,14.77
2022-09-10T03:26:14.371Z,14.87
2022-09-10T03:31:18.212Z,14.92
2022-09-10T03:36:21.055Z,14.69
2022-09-10T03:41:22.713Z,14.59
2022-09-10T03:46:24.900Z,14.69
2022-09-10T03:51:27.550Z,14.82
2022-09-10T03:56:29.292Z,14.62
2022-09-10T04:01:31.011Z,14.45
2022-09-10T04:06:32.810Z,14.65
2022-09-10T04:11:34.981Z,14.61
2022-09-10T04:16:37.314Z,14.64
2022-09-10T04:21:39.020Z,14.54
2022-09-10T04:26:40.749Z,14.67
2022-09-10T04:31:42.463Z,14.80
2022-09-10T04:36:44.142Z,14.77
2022-09-10T04:41:45.814Z,14.71
2022-09-10T04:46:47.974Z,14.79
2022-09-10T04:51:49.773Z,14.95
2022-09-10T04:56:52.384Z,15.03
2022-09-10T05:01:54.233Z,15.04
2022-09-10T05:06:56.330Z,15.16
2022-09-10T05:11:58.447Z,15.20
2022-09-10T05:17:00.258Z,15.23
2022-09-10T05:22:02.258Z,15.16
2022-09-10T05:27:04.039Z,15.27
2022-09-10T05:32:05.877Z,15.30
2022-09-10T05:37:08.869Z,15.38
2022-09-10T05:42:10.520Z,15.52
2022-09-10T05:47:12.798Z,15.55
2022-09-10T05:52:15.147Z,15.46
2022-09-10T05:57:17.657Z,15.55
2022-09-10T06:02:23.917Z,15.55
2022-09-10T06:07:29.644Z,15.59
2022-09-10T06:12:31.554Z,15.62
2022-09-10T06:17:35.779Z,15.83
2022-09-10T06:22:37.644Z,16.00
2022-09-10T06:27:39.662Z,16.21
2022-09-10T06:32:41.659Z,16.41
2022-09-10T06:37:43.518Z,16.60
2022-09-10T06:42:45.444Z,16.80
2022-09-10T06:53:12.603Z,16.97
2022-09-10T06:58:15.355Z,16.88
2022-09-10T07:04:09.742Z,16.69
2022-09-10T07:09:11.392Z,16.64
2022-09-10T07:14:14.061Z,16.68
2022-09-10T07:19:17.481Z,16.64
2022-09-10T07:24:20.192Z,16.83
2022-09-10T07:29:23.523Z,17.10
2022-09-10T07:34:26.302Z,17.15
2022-09-10T07:39:28.443Z,17.09
2022-09-10T07:44:30.759Z,17.11
2022-09-10T07:49:32.782Z,17.17
2022-09-10T07:54:34.535Z,17.20
2022-09-10T07:59:36.203Z,17.54
2022-09-10T08:04:37.940Z,17.98
2022-09-10T08:09:39.700Z,18.22
2022-09-10T08:14:42.431Z,18.40
2022-09-10T08:19:44.283Z,18.98
2022-09-10T08:24:47.956Z,19.39
2022-09-10T08:29:50.162Z,19.55
2022-09-10T08:34:52.994Z,19.62
2022-09-10T08:39:54.815Z,19.58
2022-09-10T08:45:31.876Z,19.38
2022-09-10T08:50:52.712Z,19.29
2022-09-10T08:55:58.810Z,19.03
2022-09-10T09:01:05.107Z,18.62
2022-09-10T09:06:43.900Z,18.21
2022-09-10T09:11:52.800Z,18.09
2022-09-10T09:17:14.300Z,17.97
2022-09-10T09:22:27.785Z,18.27
2022-09-10T09:27:47.188Z,18.46
2022-09-10T09:32:51.462Z,19.06
2022-09-10T09:38:21.251Z,19.48
2022-09-10T09:43:42.097Z,20.64
2022-09-10T09:48:46.269Z,20.67
2022-09-10T09:54:46.431Z,20.11
2022-09-10T09:59:35.277Z,19.65
2022-09-10T10:04:41.497Z,19.55
2022-09-10T10:09:49.545Z,19.41
2022-09-10T10:14:51.562Z,19.36
2022-09-10T10:20:02.430Z,19.24
2022-09-10T10:25:20.983Z,19.95
2022-09-10T10:30:25.199Z,20.48
2022-09-10T10:35:49.313Z,20.61
2022-09-10T10:40:58.982Z,21.04
2022-09-10T10:46:12.129Z,21.37
2022-09-10T10:51:35.075Z,21.43
2022-09-10T10:57:10.800Z,21.38
2022-09-10T11:02:16.040Z,21.43
2022-09-10T11:07:42.774Z,21.80
2022-09-10T11:13:06.424Z,22.20
2022-09-10T11:18:38.870Z,21.93
2022-09-10T11:23:55.993Z,21.63
2022-09-10T11:29:28.564Z,21.56
2022-09-10T11:34:41.385Z,22.03
2022-09-10T11:39:48.788Z,22.04
2022-09-10T11:45:03.118Z,21.97
2022-09-10T11:50:23.193Z,21.92
2022-09-10T11:55:47.609Z,21.79
2022-09-10T12:01:04.538Z,22.13
2022-09-10T12:06:12.767Z,22.15
2022-09-10T12:11:28.435Z,22.30
2022-09-10T12:16:44.371Z,21.99
2022-09-10T12:22:11.737Z,21.04
2022-09-10T12:27:19.348Z,20.34
2022-09-10T12:32:30.043Z,19.96
2022-09-10T12:37:34.732Z,19.71
2022-09-10T12:42:37.019Z,19.58
2022-09-10T12:47:44.439Z,19.64
2022-09-10T12:52:52.295Z,19.81
2022-09-10T12:58:25.601Z,20.18
2022-09-10T13:03:30.225Z,20.37
2022-09-10T13:08:44.246Z,20.01
2022-09-10T13:14:05.456Z,19.93
2022-09-10T13:19:14.210Z,20.29
2022-09-10T13:24:34.679Z,20.54
2022-09-10T13:29:45.138Z,20.16
2022-09-10T13:35:19.747Z,19.38
2022-09-10T13:40:46.453Z,19.04
2022-09-10T13:46:00.699Z,18.76
2022-09-10T13:51:08.599Z,18.68
2022-09-10T13:56:41.802Z,18.32
2022-09-10T14:01:53.649Z,18.08
2022-09-10T14:07:03.014Z,18.30
2022-09-10T14:12:08.980Z,18.57
2022-09-10T14:17:15.986Z,18.98
2022-09-10T14:22:25.036Z,19.01
2022-09-10T14:27:35.813Z,18.95
2022-09-10T14:32:37.555Z,19.01
2022-09-10T14:37:39.339Z,19.00
2022-09-10T14:42:41.112Z,18.87
2022-09-10T14:47:52.159Z,18.50
2022-09-10T14:52:55.216Z,18.53
2022-09-10T14:58:21.810Z,18.52
2022-09-10T15:03:24.154Z,18.80
2022-09-10T15:08:26.280Z,18.88
2022-09-10T15:13:28.539Z,18.84
2022-09-10T15:18:30.321Z,18.61
2022-09-10T15:23:33.234Z,18.48
2022-09-10T15:28:34.969Z,18.21
2022-09-10T15:33:36.864Z,18.09
2022-09-10T15:38:38.938Z,17.85
2022-09-10T15:43:43.169Z,17.66
2022-09-10T15:48:47.561Z,17.55
2022-09-10T15:53:50.865Z,17.21
2022-09-10T15:58:57.424Z,17.18
2022-09-10T16:04:03.846Z,17.42
2022-09-10T16:09:09.234Z,17.63
2022-09-10T16:14:13.823Z,17.80
2022-09-10T16:19:15.565Z,17.92
2022-09-10T16:24:17.239Z,18.14
2022-09-10T16:29:20.014Z,18.28
2022-09-10T16:34:22.256Z,18.48
2022-09-10T16:39:24.312Z,18.48
2022-09-10T16:44:26.129Z,18.54
2022-09-10T16:49:27.897Z,18.27
2022-09-10T16:54:31.963Z,18.10
2022-09-10T16:59:35.219Z,17.88
2022-09-10T17:04:36.941Z,17.77
2022-09-10T17:09:38.791Z,17.68
2022-09-10T17:14:40.777Z,17.60
2022-09-10T17:19:43.677Z,17.59
2022-09-10T17:24:46.003Z,17.57
2022-09-10T17:29:48.604Z,17.46
2022-09-10T17:34:51.913Z,17.33
2022-09-10T17:39:54.811Z,17.22
2022-09-10T17:44:58.675Z,17.17
2022-09-10T17:50:01.792Z,17.02
2022-09-10T17:55:04.501Z,16.88
2022-09-10T18:00:07.295Z,16.86
2022-09-10T18:05:11.543Z,16.93
2022-09-10T18:10:14.526Z,16.95
2022-09-10T18:15:17.546Z,16.89
2022-09-10T18:20:20.135Z,16.75
2022-09-10T18:25:22.604Z,16.68
2022-09-10T18:30:26.213Z,16.66
2022-09-10T18:35:28.126Z,16.65
2022-09-10T18:40:29.778Z,16.61
2022-09-10T18:45:31.428Z,16.49
2022-09-10T18:50:33.562Z,16.36
2022-09-10T18:55:37.814Z,16.31
2022-09-10T19:00:39.960Z,16.31
2022-09-10T19:05:41.601Z,16.28
2022-09-10T19:10:43.238Z,16.15
2022-09-10T19:15:54.649Z,16.12
2022-09-10T19:20:57.012Z,16.10
2022-09-10T19:25:59.074Z,16.21
2022-09-10T19:31:03.441Z,16.28
2022-09-10T19:36:07.657Z,16.20
2022-09-10T19:41:12.321Z,16.16
2022-09-10T19:46:15.763Z,16.22
2022-09-10T19:51:20.287Z,16.15
2022-09-10T19:56:24.555Z,16.23
2022-09-10T20:01:31.359Z,16.20
2022-09-10T20:06:34.618Z,16.12
2022-09-10T20:11:36.700Z,16.13
2022-09-10T20:16:40.238Z,16.10
2022-09-10T20:21:42.480Z,16.01
2022-09-10T20:26:46.458Z,15.88
2022-09-10T20:31:48.876Z,15.72
2022-09-10T20:36:51.644Z,15.68
2022-09-10T20:41:53.642Z,15.87
2022-09-10T20:46:55.382Z,16.06
2022-09-10T20:51:57.017Z,16.13
2022-09-10T20:56:58.717Z,16.25
2022-09-10T21:02:00.571Z,16.32
2022-09-10T21:07:02.296Z,16.29
2022-09-10T21:12:06.149Z,16.22
2022-09-10T21:17:09.030Z,16.16
2022-09-10T21:22:10.683Z,16.21
2022-09-10T21:27:12.451Z,16.32
2022-09-10T21:32:14.107Z,16.27
2022-09-10T21:37:15.747Z,16.33
2022-09-10T21:42:17.526Z,16.29
2022-09-10T21:47:19.173Z,16.31
2022-09-10T21:52:20.958Z,16.33
2022-09-10T21:57:23.247Z,16.27
2022-09-10T22:02:25.217Z,16.20
2022-09-10T22:07:27.122Z,16.13
2022-09-10T22:12:29.017Z,16.04
2022-09-10T22:17:30.664Z,15.98
2022-09-10T22:22:32.318Z,16.07
2022-09-10T22:27:33.950Z,16.10
2022-09-10T22:32:35.706Z,16.15
2022-09-10T22:37:37.413Z,16.08
2022-09-10T22:42:39.084Z,16.22
2022-09-10T22:47:40.757Z,16.28
2022-09-10T22:52:43.792Z,16.23
2022-09-10T22:57:45.464Z,16.20
2022-09-10T23:02:47.845Z,16.23
2022-09-10T23:07:49.815Z,16.25
2022-09-10T23:12:52.463Z,16.29
2022-09-10T23:17:55.801Z,16.34
2022-09-10T23:22:57.458Z,16.40
2022-09-10T23:27:59.098Z,16.45
2022-09-10T23:33:00.731Z,16.47
2022-09-10T23:38:02.373Z,16.44
2022-09-10T23:43:04.052Z,16.38
2022-09-10T23:48:05.700Z,16.33
2022-09-10T23:53:07.352Z,16.33
2022-09-10T23:58:09.028Z,16.45
